RUK9845 LEXJ-EGCC
Flight info
| Callsign | RUK9845 |
|---|---|
| Flight time | 1h 46m |
| Altitude | 20000 |
| Route | VADOX N864 DELOG/N0439F360 DCT NOVAN DCT TERKU DCT NOZHU/N0439F370 DCT SHIRI DCT TOJAQ DCT EPACE DCT ACCOP/N0357F240 P16 AXCIS |
| Aircraft | B738/M-SDE1E2E3FGIJ1LRWY/SB1 |
Departure
| Time | 2026-05-07 20:00 |
|---|---|
| Airport | Seve Ballesteros-Santander Airport (LEXJ) |
Arrival
| Time | 2026-05-07 21:46 |
|---|---|
| Airport | Manchester Airport (EGCC) |
| Time | Latitude | Longitude | Altitude | Speed | Heading |
|---|---|---|---|---|---|
| 2026-05-07 19:28 | 43.42381 | -3.82298 | 18 ft | 0 kts | 234° |
| 2026-05-07 19:45 | 43.42381 | -3.82300 | 18 ft | 0 kts | 243° |
| 2026-05-07 19:45 | 43.42382 | -3.82304 | 18 ft | 0 kts | 271° |
| 2026-05-07 19:45 | 43.42388 | -3.82307 | 19 ft | 1 kts | 340° |
| 2026-05-07 19:46 | 43.42399 | -3.82301 | 19 ft | 3 kts | 21° |
| 2026-05-07 19:46 | 43.42413 | -3.82275 | 18 ft | 4 kts | 84° |
| 2026-05-07 19:46 | 43.42405 | -3.82227 | 18 ft | 7 kts | 104° |
| 2026-05-07 19:46 | 43.42391 | -3.82151 | 18 ft | 10 kts | 104° |
| 2026-05-07 19:47 | 43.42399 | -3.82114 | 18 ft | 3 kts | 37° |
| 2026-05-07 19:47 | 43.42430 | -3.82094 | 18 ft | 6 kts | 25° |
| 2026-05-07 19:47 | 43.42477 | -3.82064 | 18 ft | 9 kts | 24° |
| 2026-05-07 19:47 | 43.42530 | -3.82017 | 18 ft | 10 kts | 70° |
| 2026-05-07 19:48 | 43.42514 | -3.81913 | 20 ft | 12 kts | 110° |
| 2026-05-07 19:48 | 43.42482 | -3.81791 | 19 ft | 15 kts | 110° |
| 2026-05-07 19:48 | 43.42444 | -3.81650 | 20 ft | 17 kts | 110° |
| 2026-05-07 19:48 | 43.42406 | -3.81507 | 18 ft | 15 kts | 110° |
| 2026-05-07 19:49 | 43.42383 | -3.81368 | 18 ft | 13 kts | 75° |
| 2026-05-07 19:49 | 43.42418 | -3.81330 | 19 ft | 4 kts | 19° |
| 2026-05-07 19:49 | 43.42424 | -3.81327 | 19 ft | 0 kts | 19° |
| 2026-05-07 19:49 | 43.42427 | -3.81326 | 19 ft | 2 kts | 19° |
| 2026-05-07 19:50 | 43.42459 | -3.81310 | 20 ft | 7 kts | 19° |
| 2026-05-07 19:50 | 43.42501 | -3.81261 | 21 ft | 10 kts | 80° |
| 2026-05-07 19:50 | 43.42478 | -3.81146 | 21 ft | 15 kts | 111° |
| 2026-05-07 19:50 | 43.42434 | -3.80985 | 19 ft | 20 kts | 110° |
| 2026-05-07 19:51 | 43.42384 | -3.80795 | 20 ft | 20 kts | 110° |
| 2026-05-07 19:51 | 43.42352 | -3.80714 | 18 ft | 4 kts | 160° |
| 2026-05-07 19:51 | 43.42326 | -3.80694 | 20 ft | 5 kts | 134° |
| 2026-05-07 19:51 | 43.42326 | -3.80653 | 18 ft | 3 kts | 46° |
| 2026-05-07 19:52 | 43.42341 | -3.80662 | 18 ft | 4 kts | 319° |
| 2026-05-07 19:52 | 43.42357 | -3.80701 | 21 ft | 0 kts | 289° |
| 2026-05-07 19:59 | 43.42358 | -3.80701 | 18 ft | 0 kts | 290° |
| 2026-05-07 19:59 | 43.42394 | -3.80832 | 21 ft | 46 kts | 291° |
| 2026-05-07 19:59 | 43.42594 | -3.81581 | 23 ft | 118 kts | 290° |
| 2026-05-07 19:59 | 43.42947 | -3.82915 | 88 ft | 171 kts | 291° |
| 2026-05-07 20:00 | 43.43354 | -3.84476 | 866 ft | 172 kts | 291° |
| 2026-05-07 20:00 | 43.43786 | -3.86034 | 1659 ft | 182 kts | 290° |
| 2026-05-07 20:00 | 43.44284 | -3.87807 | 2012 ft | 215 kts | 289° |
| 2026-05-07 20:00 | 43.45106 | -3.89651 | 2313 ft | 239 kts | 318° |
| 2026-05-07 20:01 | 43.46644 | -3.90563 | 2856 ft | 248 kts | 352° |
| 2026-05-07 20:01 | 43.48377 | -3.90753 | 3485 ft | 252 kts | 356° |
| 2026-05-07 20:01 | 43.50138 | -3.90879 | 4176 ft | 254 kts | 357° |
| 2026-05-07 20:01 | 43.51913 | -3.91005 | 4891 ft | 257 kts | 357° |
| 2026-05-07 20:02 | 43.53752 | -3.91147 | 5306 ft | 275 kts | 357° |
| 2026-05-07 20:02 | 43.55697 | -3.91309 | 6014 ft | 283 kts | 357° |
| 2026-05-07 20:02 | 43.57653 | -3.91482 | 7002 ft | 282 kts | 356° |
| 2026-05-07 20:02 | 43.59597 | -3.91659 | 7664 ft | 284 kts | 356° |
| 2026-05-07 20:03 | 43.61583 | -3.91844 | 7960 ft | 290 kts | 356° |
| 2026-05-07 20:03 | 43.63616 | -3.92037 | 8637 ft | 293 kts | 356° |
| 2026-05-07 20:03 | 43.65663 | -3.92233 | 9695 ft | 291 kts | 356° |
| 2026-05-07 20:03 | 43.67698 | -3.92430 | 10416 ft | 300 kts | 355° |
| 2026-05-07 20:04 | 43.69843 | -3.92640 | 10617 ft | 326 kts | 355° |
| 2026-05-07 20:04 | 43.72168 | -3.92864 | 11080 ft | 341 kts | 355° |
| 2026-05-07 20:04 | 43.74555 | -3.93095 | 11803 ft | 347 kts | 355° |
| 2026-05-07 20:04 | 43.76986 | -3.93329 | 12574 ft | 352 kts | 354° |
| 2026-05-07 20:05 | 43.79446 | -3.93567 | 13368 ft | 356 kts | 354° |
| 2026-05-07 20:05 | 43.81967 | -3.93812 | 14127 ft | 361 kts | 354° |
| 2026-05-07 20:05 | 43.84483 | -3.94056 | 14851 ft | 364 kts | 354° |
| 2026-05-07 20:05 | 43.86981 | -3.94299 | 15578 ft | 366 kts | 354° |
| 2026-05-07 20:06 | 43.89570 | -3.94551 | 16319 ft | 370 kts | 354° |
| 2026-05-07 20:06 | 43.92144 | -3.94802 | 17040 ft | 373 kts | 354° |
| 2026-05-07 20:06 | 43.94711 | -3.95053 | 17751 ft | 376 kts | 354° |
| 2026-05-07 20:06 | 43.97369 | -3.95312 | 18422 ft | 380 kts | 354° |
| 2026-05-07 20:07 | 43.99982 | -3.95568 | 19019 ft | 383 kts | 353° |
| 2026-05-07 20:07 | 44.02646 | -3.95828 | 19654 ft | 385 kts | 353° |
| 2026-05-07 20:07 | 44.05330 | -3.96090 | 20284 ft | 388 kts | 353° |
| 2026-05-07 20:07 | 44.08037 | -3.96355 | 20887 ft | 391 kts | 353° |
| 2026-05-07 20:08 | 44.10757 | -3.96622 | 21488 ft | 394 kts | 353° |
| 2026-05-07 20:08 | 44.13504 | -3.96891 | 22089 ft | 397 kts | 353° |
| 2026-05-07 20:08 | 44.16267 | -3.97162 | 22681 ft | 399 kts | 353° |
| 2026-05-07 20:08 | 44.19047 | -3.97436 | 23258 ft | 402 kts | 353° |
| 2026-05-07 20:09 | 44.21850 | -3.97711 | 23767 ft | 405 kts | 353° |
| 2026-05-07 20:09 | 44.24667 | -3.97988 | 24275 ft | 406 kts | 353° |
| 2026-05-07 20:09 | 44.27488 | -3.98266 | 24804 ft | 407 kts | 353° |
| 2026-05-07 20:10 | 44.33151 | -3.98761 | 25784 ft | 411 kts | 357° |
| 2026-05-07 20:10 | 44.36017 | -3.98533 | 26246 ft | 414 kts | 2° |
| 2026-05-07 20:10 | 44.38891 | -3.98133 | 26707 ft | 416 kts | 3° |
| 2026-05-07 20:10 | 44.41779 | -3.97688 | 27148 ft | 418 kts | 3° |
| 2026-05-07 20:11 | 44.44672 | -3.97235 | 27594 ft | 420 kts | 3° |
| 2026-05-07 20:11 | 44.47581 | -3.96789 | 28016 ft | 421 kts | 3° |
| 2026-05-07 20:11 | 44.50504 | -3.96353 | 28436 ft | 423 kts | 2° |
| 2026-05-07 20:11 | 44.53437 | -3.95926 | 28848 ft | 425 kts | 2° |
| 2026-05-07 20:12 | 44.56382 | -3.95504 | 29246 ft | 426 kts | 2° |
| 2026-05-07 20:12 | 44.59339 | -3.95083 | 29639 ft | 428 kts | 2° |
| 2026-05-07 20:12 | 44.62308 | -3.94664 | 30008 ft | 430 kts | 2° |
| 2026-05-07 20:12 | 44.65290 | -3.94242 | 30309 ft | 432 kts | 2° |
| 2026-05-07 20:13 | 44.68285 | -3.93819 | 30587 ft | 434 kts | 2° |
| 2026-05-07 20:13 | 44.71298 | -3.93393 | 30840 ft | 436 kts | 2° |
| 2026-05-07 20:13 | 44.74285 | -3.92969 | 31105 ft | 438 kts | 2° |
| 2026-05-07 20:13 | 44.77360 | -3.92532 | 31443 ft | 438 kts | 2° |
| 2026-05-07 20:14 | 44.80353 | -3.92105 | 31838 ft | 437 kts | 2° |
| 2026-05-07 20:14 | 44.83375 | -3.91674 | 32220 ft | 436 kts | 1° |
| 2026-05-07 20:14 | 44.86396 | -3.91242 | 32542 ft | 436 kts | 1° |
| 2026-05-07 20:14 | 44.89419 | -3.90811 | 32859 ft | 437 kts | 1° |
| 2026-05-07 20:15 | 44.92440 | -3.90380 | 33209 ft | 436 kts | 1° |
| 2026-05-07 20:15 | 44.95454 | -3.89948 | 33567 ft | 435 kts | 1° |
| 2026-05-07 20:15 | 44.98469 | -3.89517 | 33888 ft | 435 kts | 1° |
| 2026-05-07 20:15 | 45.01486 | -3.89085 | 34146 ft | 436 kts | 1° |
| 2026-05-07 20:16 | 45.04505 | -3.88652 | 34378 ft | 437 kts | 1° |
| 2026-05-07 20:16 | 45.07531 | -3.88218 | 34595 ft | 438 kts | 2° |
| 2026-05-07 20:16 | 45.10563 | -3.87782 | 34824 ft | 438 kts | 2° |
| 2026-05-07 20:16 | 45.13597 | -3.87346 | 35058 ft | 439 kts | 2° |
| 2026-05-07 20:17 | 45.16639 | -3.86907 | 35273 ft | 440 kts | 2° |
| 2026-05-07 20:17 | 45.19687 | -3.86468 | 35496 ft | 440 kts | 2° |
| 2026-05-07 20:17 | 45.22737 | -3.86028 | 35713 ft | 441 kts | 2° |
| 2026-05-07 20:17 | 45.25796 | -3.85585 | 35918 ft | 442 kts | 2° |
| 2026-05-07 20:18 | 45.28855 | -3.85143 | 36136 ft | 443 kts | 2° |
| 2026-05-07 20:18 | 45.31923 | -3.84698 | 36339 ft | 443 kts | 2° |
| 2026-05-07 20:18 | 45.34994 | -3.84253 | 36537 ft | 444 kts | 2° |
| 2026-05-07 20:18 | 45.38069 | -3.83807 | 36743 ft | 445 kts | 2° |
| 2026-05-07 20:19 | 45.41149 | -3.83359 | 36940 ft | 445 kts | 2° |
| 2026-05-07 20:19 | 45.44235 | -3.82910 | 37125 ft | 446 kts | 3° |
| 2026-05-07 20:19 | 45.47325 | -3.82460 | 37317 ft | 447 kts | 3° |
| 2026-05-07 20:19 | 45.50419 | -3.82009 | 37517 ft | 447 kts | 3° |
| 2026-05-07 20:20 | 45.53513 | -3.81557 | 37696 ft | 448 kts | 3° |
| 2026-05-07 20:20 | 45.56618 | -3.81104 | 37857 ft | 449 kts | 3° |
| 2026-05-07 20:20 | 45.59733 | -3.80648 | 37973 ft | 451 kts | 3° |
| 2026-05-07 20:21 | 45.65992 | -3.79731 | 37968 ft | 451 kts | 3° |
| 2026-05-07 20:21 | 45.72172 | -3.78822 | 37960 ft | 448 kts | 3° |
| 2026-05-07 20:22 | 45.78352 | -3.77912 | 37966 ft | 445 kts | 3° |
| 2026-05-07 20:22 | 45.84497 | -3.77005 | 37972 ft | 443 kts | 3° |
| 2026-05-07 20:23 | 45.90628 | -3.76100 | 37974 ft | 443 kts | 3° |
| 2026-05-07 20:23 | 45.96756 | -3.75192 | 37980 ft | 443 kts | 3° |
| 2026-05-07 20:24 | 46.02903 | -3.74280 | 37983 ft | 445 kts | 3° |
| 2026-05-07 20:24 | 46.09083 | -3.73360 | 37986 ft | 447 kts | 3° |
| 2026-05-07 20:25 | 46.15288 | -3.72435 | 37986 ft | 450 kts | 3° |
| 2026-05-07 20:25 | 46.21526 | -3.71502 | 37990 ft | 452 kts | 3° |
| 2026-05-07 20:26 | 46.27789 | -3.70563 | 37985 ft | 453 kts | 3° |
| 2026-05-07 20:26 | 46.34077 | -3.69705 | 37989 ft | 454 kts | 1° |
| 2026-05-07 20:27 | 46.40384 | -3.69367 | 37990 ft | 453 kts | 359° |
| 2026-05-07 20:27 | 46.46694 | -3.69164 | 37988 ft | 453 kts | 359° |
| 2026-05-07 20:28 | 46.52992 | -3.68921 | 37988 ft | 452 kts | 359° |
| 2026-05-07 20:28 | 46.59280 | -3.68639 | 37993 ft | 451 kts | 359° |
| 2026-05-07 20:29 | 46.65552 | -3.68343 | 37990 ft | 450 kts | 359° |
| 2026-05-07 20:29 | 46.71806 | -3.68046 | 37992 ft | 449 kts | 359° |
| 2026-05-07 20:30 | 46.78053 | -3.67750 | 37994 ft | 448 kts | 359° |
| 2026-05-07 20:30 | 46.84284 | -3.67455 | 37996 ft | 448 kts | 359° |
| 2026-05-07 20:31 | 46.90513 | -3.67159 | 37994 ft | 448 kts | 359° |
| 2026-05-07 20:31 | 46.96732 | -3.66864 | 38000 ft | 448 kts | 359° |
| 2026-05-07 20:32 | 47.02962 | -3.66567 | 38000 ft | 448 kts | 359° |
| 2026-05-07 20:32 | 47.09202 | -3.66269 | 38003 ft | 449 kts | 359° |
| 2026-05-07 20:33 | 47.15445 | -3.65970 | 37999 ft | 450 kts | 359° |
| 2026-05-07 20:33 | 47.21700 | -3.65670 | 37998 ft | 450 kts | 359° |
| 2026-05-07 20:34 | 47.27933 | -3.65370 | 38000 ft | 451 kts | 359° |
| 2026-05-07 20:34 | 47.34261 | -3.65065 | 37999 ft | 452 kts | 359° |
| 2026-05-07 20:35 | 47.40553 | -3.64760 | 38002 ft | 453 kts | 359° |
| 2026-05-07 20:35 | 47.46818 | -3.64457 | 38000 ft | 453 kts | 359° |
| 2026-05-07 20:36 | 47.53122 | -3.64150 | 37997 ft | 454 kts | 359° |
| 2026-05-07 20:36 | 47.59433 | -3.63843 | 37999 ft | 454 kts | 359° |
| 2026-05-07 20:37 | 47.65737 | -3.63535 | 37996 ft | 453 kts | 359° |
| 2026-05-07 20:37 | 47.72046 | -3.63226 | 37997 ft | 453 kts | 359° |
| 2026-05-07 20:38 | 47.78344 | -3.62917 | 37994 ft | 453 kts | 359° |
| 2026-05-07 20:38 | 47.84634 | -3.62608 | 37999 ft | 452 kts | 359° |
| 2026-05-07 20:39 | 47.90929 | -3.62297 | 37995 ft | 452 kts | 359° |
| 2026-05-07 20:39 | 47.96196 | -3.62037 | 38001 ft | 452 kts | 359° |
| 2026-05-07 20:40 | 48.02437 | -3.61729 | 38004 ft | 452 kts | 359° |
| 2026-05-07 20:40 | 48.08696 | -3.62001 | 38007 ft | 449 kts | 354° |
| 2026-05-07 20:41 | 48.14937 | -3.62626 | 38008 ft | 449 kts | 353° |
| 2026-05-07 20:41 | 48.21179 | -3.63244 | 38006 ft | 449 kts | 353° |
| 2026-05-07 20:42 | 48.27423 | -3.63812 | 38003 ft | 450 kts | 354° |
| 2026-05-07 20:42 | 48.33669 | -3.64357 | 38005 ft | 450 kts | 354° |
| 2026-05-07 20:43 | 48.39926 | -3.64899 | 38004 ft | 450 kts | 354° |
| 2026-05-07 20:43 | 48.46182 | -3.65444 | 38000 ft | 451 kts | 354° |
| 2026-05-07 20:44 | 48.52443 | -3.65992 | 37995 ft | 451 kts | 354° |
| 2026-05-07 20:44 | 48.58708 | -3.66542 | 37996 ft | 451 kts | 354° |
| 2026-05-07 20:45 | 48.64976 | -3.67094 | 37994 ft | 451 kts | 354° |
| 2026-05-07 20:45 | 48.71242 | -3.67647 | 38002 ft | 451 kts | 354° |
| 2026-05-07 20:46 | 48.77516 | -3.68201 | 38019 ft | 451 kts | 354° |
| 2026-05-07 20:46 | 48.83786 | -3.68757 | 38018 ft | 451 kts | 354° |
| 2026-05-07 20:47 | 48.90059 | -3.69315 | 38016 ft | 452 kts | 354° |
| 2026-05-07 20:47 | 48.96330 | -3.69874 | 38015 ft | 452 kts | 354° |
| 2026-05-07 20:48 | 49.02603 | -3.70434 | 38013 ft | 452 kts | 354° |
| 2026-05-07 20:48 | 49.08880 | -3.70996 | 38011 ft | 452 kts | 354° |
| 2026-05-07 20:49 | 49.15153 | -3.71559 | 38006 ft | 452 kts | 354° |
| 2026-05-07 20:49 | 49.21429 | -3.72124 | 38007 ft | 452 kts | 354° |
| 2026-05-07 20:50 | 49.27707 | -3.72691 | 38005 ft | 452 kts | 354° |
| 2026-05-07 20:50 | 49.33983 | -3.73259 | 38008 ft | 452 kts | 354° |
| 2026-05-07 20:51 | 49.40218 | -3.73824 | 38003 ft | 452 kts | 354° |
| 2026-05-07 20:51 | 49.46499 | -3.74395 | 38005 ft | 452 kts | 354° |
| 2026-05-07 20:52 | 49.52781 | -3.74968 | 37991 ft | 452 kts | 354° |
| 2026-05-07 20:52 | 49.59063 | -3.75542 | 38001 ft | 452 kts | 354° |
| 2026-05-07 20:53 | 49.65341 | -3.76118 | 38007 ft | 452 kts | 354° |
| 2026-05-07 20:53 | 49.71633 | -3.76431 | 38007 ft | 454 kts | 0° |
| 2026-05-07 20:54 | 49.77933 | -3.75700 | 38007 ft | 455 kts | 3° |
| 2026-05-07 20:54 | 49.84231 | -3.74818 | 38004 ft | 454 kts | 3° |
| 2026-05-07 20:55 | 49.90531 | -3.74009 | 38012 ft | 454 kts | 2° |
| 2026-05-07 20:55 | 49.96830 | -3.73250 | 38001 ft | 454 kts | 2° |
| 2026-05-07 20:56 | 50.03134 | -3.72501 | 38016 ft | 454 kts | 2° |
| 2026-05-07 20:56 | 50.09440 | -3.71749 | 38022 ft | 454 kts | 2° |
| 2026-05-07 20:57 | 50.15745 | -3.70992 | 38022 ft | 454 kts | 2° |
| 2026-05-07 20:57 | 50.22052 | -3.70232 | 38019 ft | 455 kts | 2° |
| 2026-05-07 20:58 | 50.28314 | -3.69475 | 38024 ft | 455 kts | 2° |
| 2026-05-07 20:58 | 50.34627 | -3.68711 | 38028 ft | 455 kts | 2° |
| 2026-05-07 20:59 | 50.40940 | -3.67944 | 38031 ft | 455 kts | 2° |
| 2026-05-07 20:59 | 50.47246 | -3.66865 | 38035 ft | 456 kts | 5° |
| 2026-05-07 21:00 | 50.53543 | -3.65594 | 38041 ft | 456 kts | 5° |
| 2026-05-07 21:00 | 50.59844 | -3.64389 | 38039 ft | 456 kts | 5° |
| 2026-05-07 21:01 | 50.66149 | -3.63193 | 38042 ft | 456 kts | 5° |
| 2026-05-07 21:01 | 50.72454 | -3.61989 | 38050 ft | 457 kts | 5° |
| 2026-05-07 21:02 | 50.78762 | -3.60777 | 38054 ft | 457 kts | 5° |
| 2026-05-07 21:02 | 50.85071 | -3.59560 | 38049 ft | 457 kts | 5° |
| 2026-05-07 21:03 | 50.91389 | -3.58339 | 38047 ft | 457 kts | 5° |
| 2026-05-07 21:03 | 50.97701 | -3.57115 | 38043 ft | 457 kts | 5° |
| 2026-05-07 21:04 | 51.04014 | -3.55888 | 38044 ft | 457 kts | 5° |
| 2026-05-07 21:04 | 51.10324 | -3.54658 | 38042 ft | 457 kts | 5° |
| 2026-05-07 21:05 | 51.16635 | -3.53425 | 38048 ft | 457 kts | 5° |
| 2026-05-07 21:05 | 51.22943 | -3.52189 | 38048 ft | 457 kts | 5° |
| 2026-05-07 21:06 | 51.29260 | -3.50950 | 38052 ft | 457 kts | 5° |
| 2026-05-07 21:06 | 51.35561 | -3.49715 | 38052 ft | 456 kts | 5° |
| 2026-05-07 21:07 | 51.41867 | -3.48474 | 38051 ft | 456 kts | 5° |
| 2026-05-07 21:07 | 51.48151 | -3.47234 | 38033 ft | 448 kts | 5° |
| 2026-05-07 21:07 | 51.51198 | -3.46628 | 38022 ft | 433 kts | 5° |
| 2026-05-07 21:08 | 51.54099 | -3.46051 | 38030 ft | 420 kts | 5° |
| 2026-05-07 21:08 | 51.57011 | -3.45472 | 37793 ft | 413 kts | 5° |
| 2026-05-07 21:08 | 51.59826 | -3.44915 | 37132 ft | 417 kts | 5° |
| 2026-05-07 21:08 | 51.62764 | -3.44336 | 35958 ft | 435 kts | 5° |
| 2026-05-07 21:09 | 51.65800 | -3.43739 | 35191 ft | 442 kts | 5° |
| 2026-05-07 21:09 | 51.68846 | -3.43132 | 34806 ft | 439 kts | 6° |
| 2026-05-07 21:09 | 51.71856 | -3.42527 | 34541 ft | 433 kts | 6° |
| 2026-05-07 21:09 | 51.74831 | -3.41930 | 34227 ft | 429 kts | 6° |
| 2026-05-07 21:10 | 51.77780 | -3.41338 | 33800 ft | 426 kts | 6° |
| 2026-05-07 21:10 | 51.80717 | -3.40749 | 33354 ft | 424 kts | 6° |
| 2026-05-07 21:10 | 51.83636 | -3.40164 | 32945 ft | 421 kts | 6° |
| 2026-05-07 21:10 | 51.86534 | -3.39582 | 32573 ft | 418 kts | 6° |
| 2026-05-07 21:11 | 51.89407 | -3.39004 | 32196 ft | 414 kts | 6° |
| 2026-05-07 21:11 | 51.92258 | -3.38430 | 31813 ft | 412 kts | 5° |
| 2026-05-07 21:11 | 51.97929 | -3.37787 | 31067 ft | 405 kts | 0° |
| 2026-05-07 21:12 | 52.00734 | -3.37624 | 30713 ft | 403 kts | 0° |
| 2026-05-07 21:12 | 52.03524 | -3.37457 | 30359 ft | 400 kts | 1° |
| 2026-05-07 21:12 | 52.06297 | -3.37272 | 29992 ft | 398 kts | 1° |
| 2026-05-07 21:12 | 52.09053 | -3.37068 | 29568 ft | 395 kts | 1° |
| 2026-05-07 21:13 | 52.11794 | -3.36857 | 29182 ft | 393 kts | 1° |
| 2026-05-07 21:13 | 52.14512 | -3.36648 | 28802 ft | 390 kts | 1° |
| 2026-05-07 21:13 | 52.17211 | -3.36451 | 28420 ft | 387 kts | 1° |
| 2026-05-07 21:13 | 52.19897 | -3.36263 | 28039 ft | 385 kts | 1° |
| 2026-05-07 21:14 | 52.22564 | -3.36078 | 27669 ft | 383 kts | 1° |
| 2026-05-07 21:14 | 52.25219 | -3.35893 | 27308 ft | 381 kts | 1° |
| 2026-05-07 21:14 | 52.27858 | -3.35708 | 26958 ft | 378 kts | 1° |
| 2026-05-07 21:14 | 52.30482 | -3.35523 | 26604 ft | 376 kts | 1° |
| 2026-05-07 21:15 | 52.33092 | -3.35338 | 26262 ft | 374 kts | 1° |
| 2026-05-07 21:15 | 52.35688 | -3.35154 | 25920 ft | 373 kts | 1° |
| 2026-05-07 21:15 | 52.38272 | -3.34971 | 25588 ft | 371 kts | 1° |
| 2026-05-07 21:15 | 52.40842 | -3.34788 | 25261 ft | 368 kts | 1° |
| 2026-05-07 21:16 | 52.43397 | -3.34607 | 24946 ft | 367 kts | 0° |
| 2026-05-07 21:16 | 52.45938 | -3.34426 | 24634 ft | 365 kts | 0° |
| 2026-05-07 21:16 | 52.48470 | -3.34237 | 24318 ft | 363 kts | 1° |
| 2026-05-07 21:16 | 52.50987 | -3.34041 | 24006 ft | 362 kts | 1° |
| 2026-05-07 21:17 | 52.53495 | -3.33843 | 23702 ft | 360 kts | 1° |
| 2026-05-07 21:17 | 52.55993 | -3.33647 | 23357 ft | 358 kts | 1° |
| 2026-05-07 21:17 | 52.58474 | -3.33453 | 23007 ft | 356 kts | 1° |
| 2026-05-07 21:17 | 52.60943 | -3.33260 | 22663 ft | 354 kts | 1° |
| 2026-05-07 21:18 | 52.63390 | -3.32787 | 22318 ft | 355 kts | 11° |
| 2026-05-07 21:18 | 52.65745 | -3.31598 | 21980 ft | 354 kts | 19° |
| 2026-05-07 21:18 | 52.68038 | -3.30171 | 21683 ft | 351 kts | 19° |
| 2026-05-07 21:18 | 52.70317 | -3.28757 | 21354 ft | 349 kts | 19° |
| 2026-05-07 21:19 | 52.72575 | -3.27381 | 20898 ft | 344 kts | 19° |
| 2026-05-07 21:19 | 52.74822 | -3.26033 | 20335 ft | 344 kts | 19° |
| 2026-05-07 21:19 | 52.77068 | -3.24697 | 19813 ft | 342 kts | 18° |
| 2026-05-07 21:19 | 52.79270 | -3.23386 | 19355 ft | 339 kts | 19° |
| 2026-05-07 21:20 | 52.81483 | -3.22067 | 18899 ft | 339 kts | 18° |
| 2026-05-07 21:20 | 52.83701 | -3.20743 | 18582 ft | 338 kts | 19° |
| 2026-05-07 21:20 | 52.85905 | -3.19424 | 18368 ft | 335 kts | 19° |
| 2026-05-07 21:20 | 52.88084 | -3.18119 | 18080 ft | 332 kts | 19° |
| 2026-05-07 21:21 | 52.90309 | -3.17177 | 17713 ft | 330 kts | 3° |
| 2026-05-07 21:21 | 52.92587 | -3.16984 | 17439 ft | 326 kts | 360° |
| 2026-05-07 21:21 | 52.94852 | -3.16867 | 17155 ft | 325 kts | 360° |
| 2026-05-07 21:21 | 52.97110 | -3.16743 | 16854 ft | 324 kts | 0° |
| 2026-05-07 21:22 | 52.99353 | -3.16597 | 16559 ft | 323 kts | 0° |
| 2026-05-07 21:22 | 53.01592 | -3.16433 | 16288 ft | 321 kts | 0° |
| 2026-05-07 21:22 | 53.03819 | -3.16260 | 16013 ft | 320 kts | 1° |
| 2026-05-07 21:22 | 53.06039 | -3.16084 | 15740 ft | 319 kts | 1° |
| 2026-05-07 21:23 | 53.08247 | -3.15909 | 15456 ft | 317 kts | 1° |
| 2026-05-07 21:23 | 53.10450 | -3.15735 | 15180 ft | 316 kts | 1° |
| 2026-05-07 21:23 | 53.12639 | -3.15561 | 14908 ft | 315 kts | 1° |
| 2026-05-07 21:23 | 53.14812 | -3.15389 | 14574 ft | 310 kts | 1° |
| 2026-05-07 21:24 | 53.16965 | -3.15218 | 14086 ft | 310 kts | 1° |
| 2026-05-07 21:24 | 53.19117 | -3.15047 | 13632 ft | 308 kts | 1° |
| 2026-05-07 21:24 | 53.21242 | -3.14878 | 13285 ft | 304 kts | 1° |
| 2026-05-07 21:24 | 53.23343 | -3.14711 | 12979 ft | 300 kts | 1° |
| 2026-05-07 21:25 | 53.25422 | -3.14546 | 12696 ft | 300 kts | 1° |
| 2026-05-07 21:25 | 53.27517 | -3.14380 | 12423 ft | 303 kts | 1° |
| 2026-05-07 21:25 | 53.29628 | -3.14212 | 12144 ft | 304 kts | 1° |
| 2026-05-07 21:25 | 53.31735 | -3.14044 | 11857 ft | 302 kts | 1° |
| 2026-05-07 21:26 | 53.33122 | -3.13932 | 11673 ft | 301 kts | 1° |
| 2026-05-07 21:26 | 53.35227 | -3.13764 | 11405 ft | 305 kts | 1° |
| 2026-05-07 21:26 | 53.37345 | -3.13485 | 11102 ft | 307 kts | 11° |
| 2026-05-07 21:26 | 53.39787 | -3.11270 | 10730 ft | 303 kts | 45° |
| 2026-05-07 21:27 | 53.41014 | -3.08458 | 10467 ft | 297 kts | 60° |
| 2026-05-07 21:27 | 53.41721 | -3.06446 | 10279 ft | 296 kts | 62° |
| 2026-05-07 21:27 | 53.42736 | -3.03464 | 10010 ft | 294 kts | 62° |
| 2026-05-07 21:27 | 53.43744 | -3.00485 | 9719 ft | 292 kts | 62° |
| 2026-05-07 21:28 | 53.44745 | -2.97541 | 9431 ft | 290 kts | 62° |
| 2026-05-07 21:28 | 53.45744 | -2.94618 | 9144 ft | 287 kts | 62° |
| 2026-05-07 21:28 | 53.46736 | -2.91726 | 8878 ft | 285 kts | 62° |
| 2026-05-07 21:28 | 53.47722 | -2.88860 | 8612 ft | 282 kts | 62° |
| 2026-05-07 21:29 | 53.48701 | -2.86013 | 8351 ft | 280 kts | 62° |
| 2026-05-07 21:29 | 53.49662 | -2.83222 | 8099 ft | 279 kts | 62° |
| 2026-05-07 21:29 | 53.50641 | -2.80375 | 7843 ft | 277 kts | 61° |
| 2026-05-07 21:29 | 53.51603 | -2.77575 | 7591 ft | 276 kts | 61° |
| 2026-05-07 21:30 | 53.52258 | -2.75666 | 7416 ft | 276 kts | 61° |
| 2026-05-07 21:30 | 53.53232 | -2.72798 | 7162 ft | 274 kts | 64° |
| 2026-05-07 21:30 | 53.54124 | -2.70061 | 7052 ft | 268 kts | 60° |
| 2026-05-07 21:30 | 53.55082 | -2.67361 | 7033 ft | 263 kts | 60° |
| 2026-05-07 21:31 | 53.56009 | -2.64780 | 7017 ft | 252 kts | 60° |
| 2026-05-07 21:31 | 53.56895 | -2.62324 | 7009 ft | 240 kts | 60° |
| 2026-05-07 21:31 | 53.57742 | -2.59989 | 7021 ft | 235 kts | 60° |
| 2026-05-07 21:31 | 53.58593 | -2.57643 | 7030 ft | 236 kts | 60° |
| 2026-05-07 21:32 | 53.59456 | -2.55263 | 7043 ft | 241 kts | 60° |
| 2026-05-07 21:32 | 53.60334 | -2.52838 | 7049 ft | 243 kts | 60° |
| 2026-05-07 21:32 | 53.61214 | -2.50408 | 7034 ft | 243 kts | 60° |
| 2026-05-07 21:32 | 53.62091 | -2.47986 | 7033 ft | 242 kts | 60° |
| 2026-05-07 21:33 | 53.62962 | -2.45575 | 7021 ft | 240 kts | 60° |
| 2026-05-07 21:33 | 53.63827 | -2.43187 | 7030 ft | 238 kts | 60° |
| 2026-05-07 21:33 | 53.64689 | -2.40813 | 7023 ft | 237 kts | 60° |
| 2026-05-07 21:33 | 53.65551 | -2.38444 | 7037 ft | 239 kts | 60° |
| 2026-05-07 21:34 | 53.66426 | -2.36040 | 7044 ft | 243 kts | 60° |
| 2026-05-07 21:34 | 53.67310 | -2.33608 | 7025 ft | 243 kts | 60° |
| 2026-05-07 21:34 | 53.68191 | -2.31189 | 7023 ft | 241 kts | 60° |
| 2026-05-07 21:34 | 53.69068 | -2.28782 | 7031 ft | 241 kts | 60° |
| 2026-05-07 21:35 | 53.69945 | -2.26377 | 7018 ft | 240 kts | 60° |
| 2026-05-07 21:35 | 53.70817 | -2.23983 | 7030 ft | 240 kts | 60° |
| 2026-05-07 21:35 | 53.71586 | -2.21479 | 7016 ft | 239 kts | 77° |
| 2026-05-07 21:35 | 53.71967 | -2.18766 | 7036 ft | 238 kts | 80° |
| 2026-05-07 21:36 | 53.72333 | -2.16035 | 7031 ft | 239 kts | 80° |
| 2026-05-07 21:36 | 53.72700 | -2.13298 | 7019 ft | 239 kts | 80° |
| 2026-05-07 21:36 | 53.73066 | -2.10565 | 7038 ft | 239 kts | 80° |
| 2026-05-07 21:36 | 53.73431 | -2.07828 | 6979 ft | 239 kts | 80° |
| 2026-05-07 21:37 | 53.73691 | -2.05064 | 6626 ft | 240 kts | 96° |
| 2026-05-07 21:37 | 53.73199 | -2.02354 | 6016 ft | 247 kts | 127° |
| 2026-05-07 21:37 | 53.72134 | -2.00092 | 5684 ft | 245 kts | 138° |
| 2026-05-07 21:37 | 53.70693 | -1.98743 | 5358 ft | 237 kts | 175° |
| 2026-05-07 21:38 | 53.69093 | -1.98996 | 5166 ft | 230 kts | 193° |
| 2026-05-07 21:38 | 53.67531 | -1.99523 | 4879 ft | 228 kts | 192° |
| 2026-05-07 21:38 | 53.65975 | -1.99999 | 4472 ft | 227 kts | 191° |
| 2026-05-07 21:38 | 53.64444 | -2.00420 | 4393 ft | 221 kts | 189° |
| 2026-05-07 21:39 | 53.62916 | -2.00808 | 4293 ft | 224 kts | 189° |
| 2026-05-07 21:39 | 53.61361 | -2.01176 | 4219 ft | 227 kts | 188° |
| 2026-05-07 21:39 | 53.59818 | -2.01522 | 4124 ft | 219 kts | 188° |
| 2026-05-07 21:39 | 53.58340 | -2.01841 | 4043 ft | 211 kts | 188° |
| 2026-05-07 21:40 | 53.56891 | -2.02147 | 3983 ft | 211 kts | 188° |
| 2026-05-07 21:40 | 53.55415 | -2.02453 | 3927 ft | 217 kts | 188° |
| 2026-05-07 21:40 | 53.53927 | -2.02757 | 3856 ft | 218 kts | 187° |
| 2026-05-07 21:40 | 53.52404 | -2.03064 | 3778 ft | 217 kts | 187° |
| 2026-05-07 21:41 | 53.50913 | -2.03363 | 3704 ft | 215 kts | 187° |
| 2026-05-07 21:41 | 53.49442 | -2.03657 | 3593 ft | 217 kts | 187° |
| 2026-05-07 21:41 | 53.47950 | -2.03955 | 3524 ft | 214 kts | 187° |
| 2026-05-07 21:41 | 53.46552 | -2.04714 | 3504 ft | 214 kts | 213° |
| 2026-05-07 21:42 | 53.45450 | -2.06427 | 3329 ft | 222 kts | 229° |
| 2026-05-07 21:42 | 53.44515 | -2.08501 | 2993 ft | 218 kts | 231° |
| 2026-05-07 21:42 | 53.43603 | -2.10466 | 2678 ft | 207 kts | 229° |
| 2026-05-07 21:42 | 53.42721 | -2.12295 | 2397 ft | 196 kts | 228° |
| 2026-05-07 21:43 | 53.41889 | -2.14011 | 2132 ft | 183 kts | 228° |
| 2026-05-07 21:43 | 53.41125 | -2.15593 | 1888 ft | 166 kts | 228° |
| 2026-05-07 21:43 | 53.40424 | -2.17042 | 1657 ft | 155 kts | 227° |
| 2026-05-07 21:43 | 53.39767 | -2.18401 | 1481 ft | 147 kts | 227° |
| 2026-05-07 21:44 | 53.39132 | -2.19713 | 1263 ft | 144 kts | 228° |
| 2026-05-07 21:44 | 53.38506 | -2.21010 | 1054 ft | 144 kts | 228° |
| 2026-05-07 21:44 | 53.37867 | -2.22331 | 852 ft | 148 kts | 229° |
| 2026-05-07 21:44 | 53.37222 | -2.23668 | 641 ft | 147 kts | 229° |
| 2026-05-07 21:45 | 53.36580 | -2.24998 | 413 ft | 146 kts | 230° |
| 2026-05-07 21:45 | 53.35945 | -2.26324 | 257 ft | 143 kts | 230° |
| 2026-05-07 21:45 | 53.35406 | -2.27435 | 237 ft | 94 kts | 231° |
| 2026-05-07 21:45 | 53.35114 | -2.28039 | 229 ft | 52 kts | 231° |
| 2026-05-07 21:46 | 53.34978 | -2.28373 | 237 ft | 30 kts | 251° |
| 2026-05-07 21:46 | 53.34946 | -2.28614 | 232 ft | 13 kts | 262° |
| 2026-05-07 21:46 | 53.34971 | -2.28747 | 232 ft | 12 kts | 324° |
| 2026-05-07 21:46 | 53.35024 | -2.28730 | 234 ft | 8 kts | 49° |
| 2026-05-07 21:47 | 53.35057 | -2.28661 | 232 ft | 8 kts | 51° |
| 2026-05-07 21:47 | 53.35096 | -2.28580 | 232 ft | 11 kts | 51° |
| 2026-05-07 21:47 | 53.35151 | -2.28464 | 233 ft | 15 kts | 51° |
| 2026-05-07 21:47 | 53.35224 | -2.28314 | 232 ft | 18 kts | 50° |
| 2026-05-07 21:48 | 53.35313 | -2.28145 | 232 ft | 19 kts | 45° |
| 2026-05-07 21:48 | 53.35416 | -2.27988 | 232 ft | 22 kts | 43° |
| 2026-05-07 21:48 | 53.35461 | -2.27804 | 232 ft | 18 kts | 78° |
| 2026-05-07 21:48 | 53.35537 | -2.27624 | 232 ft | 20 kts | 50° |
| 2026-05-07 21:49 | 53.35631 | -2.27435 | 232 ft | 17 kts | 51° |
| 2026-05-07 21:49 | 53.35709 | -2.27273 | 232 ft | 18 kts | 51° |
| 2026-05-07 21:49 | 53.35784 | -2.27115 | 232 ft | 17 kts | 52° |
| 2026-05-07 21:49 | 53.35844 | -2.26948 | 232 ft | 16 kts | 56° |
| 2026-05-07 21:50 | 53.35920 | -2.26836 | 232 ft | 13 kts | 359° |
| 2026-05-07 21:50 | 53.36000 | -2.26829 | 232 ft | 6 kts | 351° |
| 2026-05-07 21:50 | 53.36028 | -2.26867 | 232 ft | 5 kts | 314° |
| 2026-05-07 21:50 | 53.36033 | -2.26876 | 232 ft | 0 kts | 313° |